sensor_id;sensor_type;location;lat;lon;timestamp;P1;durP1;ratioP1;P2;durP2;ratioP2
61116;SDS011;47002;50.856;6.580;2022-08-18T00:00:00;0.00;;;0.00;;
61116;SDS011;47002;50.856;6.580;2022-08-18T00:02:27;0.00;;;0.00;;
61116;SDS011;47002;50.856;6.580;2022-08-18T00:04:54;0.00;;;0.00;;
61116;SDS011;47002;50.856;6.580;2022-08-18T00:07:21;0.00;;;0.00;;
61116;SDS011;47002;50.856;6.580;2022-08-18T00:09:50;0.00;;;0.00;;
61116;SDS011;47002;50.856;6.580;2022-08-18T00:12:17;0.00;;;0.00;;
61116;SDS011;47002;50.856;6.580;2022-08-18T00:14:44;0.00;;;0.00;;
61116;SDS011;47002;50.856;6.580;2022-08-18T00:17:10;0.00;;;0.00;;
61116;SDS011;47002;50.856;6.580;2022-08-18T00:19:37;0.00;;;0.00;;
61116;SDS011;47002;50.856;6.580;2022-08-18T00:22:03;0.00;;;0.00;;
61116;SDS011;47002;50.856;6.580;2022-08-18T00:24:29;0.00;;;0.00;;
61116;SDS011;47002;50.856;6.580;2022-08-18T00:26:56;0.00;;;0.00;;
61116;SDS011;47002;50.856;6.580;2022-08-18T00:29:22;0.00;;;0.00;;
61116;SDS011;47002;50.856;6.580;2022-08-18T00:31:48;0.00;;;0.00;;
61116;SDS011;47002;50.856;6.580;2022-08-18T00:34:14;0.00;;;0.00;;
61116;SDS011;47002;50.856;6.580;2022-08-18T00:36:40;0.00;;;0.00;;
61116;SDS011;47002;50.856;6.580;2022-08-18T00:39:06;0.00;;;0.00;;
61116;SDS011;47002;50.856;6.580;2022-08-18T00:41:32;0.00;;;0.00;;
61116;SDS011;47002;50.856;6.580;2022-08-18T00:43:59;0.00;;;0.00;;
61116;SDS011;47002;50.856;6.580;2022-08-18T00:46:26;0.00;;;0.00;;
61116;SDS011;47002;50.856;6.580;2022-08-18T00:48:53;0.00;;;0.00;;
61116;SDS011;47002;50.856;6.580;2022-08-18T00:51:20;0.00;;;0.00;;
61116;SDS011;47002;50.856;6.580;2022-08-18T00:53:49;0.00;;;0.00;;
61116;SDS011;47002;50.856;6.580;2022-08-18T00:56:20;0.00;;;0.00;;
61116;SDS011;47002;50.856;6.580;2022-08-18T00:58:49;0.00;;;0.00;;
61116;SDS011;47002;50.856;6.580;2022-08-18T01:01:20;0.00;;;0.00;;
61116;SDS011;47002;50.856;6.580;2022-08-18T01:03:48;0.00;;;0.00;;
61116;SDS011;47002;50.856;6.580;2022-08-18T01:06:20;0.00;;;0.00;;
61116;SDS011;47002;50.856;6.580;2022-08-18T01:08:54;0.00;;;0.00;;
61116;SDS011;47002;50.856;6.580;2022-08-18T01:11:20;0.00;;;0.00;;
61116;SDS011;47002;50.856;6.580;2022-08-18T01:13:45;0.00;;;0.00;;
61116;SDS011;47002;50.856;6.580;2022-08-18T01:16:11;0.00;;;0.00;;
61116;SDS011;47002;50.856;6.580;2022-08-18T01:18:38;0.00;;;0.00;;
61116;SDS011;47002;50.856;6.580;2022-08-18T01:21:06;0.00;;;0.00;;
61116;SDS011;47002;50.856;6.580;2022-08-18T01:26:03;0.00;;;0.00;;
61116;SDS011;47002;50.856;6.580;2022-08-18T01:28:30;0.00;;;0.00;;
61116;SDS011;47002;50.856;6.580;2022-08-18T01:30:58;0.00;;;0.00;;
61116;SDS011;47002;50.856;6.580;2022-08-18T01:33:25;0.00;;;0.00;;
61116;SDS011;47002;50.856;6.580;2022-08-18T01:35:53;0.00;;;0.00;;
61116;SDS011;47002;50.856;6.580;2022-08-18T01:38:19;0.00;;;0.00;;
61116;SDS011;47002;50.856;6.580;2022-08-18T01:40:47;0.00;;;0.00;;
61116;SDS011;47002;50.856;6.580;2022-08-18T01:43:14;0.00;;;0.00;;
61116;SDS011;47002;50.856;6.580;2022-08-18T01:45:40;0.00;;;0.00;;
61116;SDS011;47002;50.856;6.580;2022-08-18T01:48:06;0.00;;;0.00;;
61116;SDS011;47002;50.856;6.580;2022-08-18T01:50:32;0.00;;;0.00;;
61116;SDS011;47002;50.856;6.580;2022-08-18T01:53:00;0.00;;;0.00;;
61116;SDS011;47002;50.856;6.580;2022-08-18T01:55:26;0.00;;;0.00;;
61116;SDS011;47002;50.856;6.580;2022-08-18T01:57:53;0.00;;;0.00;;
61116;SDS011;47002;50.856;6.580;2022-08-18T02:00:19;0.00;;;0.00;;
61116;SDS011;47002;50.856;6.580;2022-08-18T02:02:46;0.00;;;0.00;;
61116;SDS011;47002;50.856;6.580;2022-08-18T02:05:15;0.00;;;0.00;;
61116;SDS011;47002;50.856;6.580;2022-08-18T02:07:46;0.00;;;0.00;;
61116;SDS011;47002;50.856;6.580;2022-08-18T02:10:12;0.00;;;0.00;;
61116;SDS011;47002;50.856;6.580;2022-08-18T02:12:39;0.00;;;0.00;;
61116;SDS011;47002;50.856;6.580;2022-08-18T02:15:07;0.00;;;0.00;;
61116;SDS011;47002;50.856;6.580;2022-08-18T02:17:35;0.00;;;0.00;;
61116;SDS011;47002;50.856;6.580;2022-08-18T02:20:02;0.00;;;0.00;;
61116;SDS011;47002;50.856;6.580;2022-08-18T02:22:29;0.00;;;0.00;;
61116;SDS011;47002;50.856;6.580;2022-08-18T02:24:55;0.00;;;0.00;;
61116;SDS011;47002;50.856;6.580;2022-08-18T02:27:21;0.00;;;0.00;;
61116;SDS011;47002;50.856;6.580;2022-08-18T02:29:47;0.00;;;0.00;;
61116;SDS011;47002;50.856;6.580;2022-08-18T02:32:14;0.00;;;0.00;;
61116;SDS011;47002;50.856;6.580;2022-08-18T02:34:40;0.00;;;0.00;;
61116;SDS011;47002;50.856;6.580;2022-08-18T02:37:06;0.00;;;0.00;;
61116;SDS011;47002;50.856;6.580;2022-08-18T02:39:32;0.00;;;0.00;;
61116;SDS011;47002;50.856;6.580;2022-08-18T02:41:59;0.00;;;0.00;;
61116;SDS011;47002;50.856;6.580;2022-08-18T02:44:25;0.00;;;0.00;;
61116;SDS011;47002;50.856;6.580;2022-08-18T02:46:51;0.00;;;0.00;;
61116;SDS011;47002;50.856;6.580;2022-08-18T02:49:18;0.00;;;0.00;;
61116;SDS011;47002;50.856;6.580;2022-08-18T02:51:45;0.00;;;0.00;;
61116;SDS011;47002;50.856;6.580;2022-08-18T02:54:10;0.00;;;0.00;;
61116;SDS011;47002;50.856;6.580;2022-08-18T02:56:36;0.00;;;0.00;;
61116;SDS011;47002;50.856;6.580;2022-08-18T02:59:03;0.00;;;0.00;;
61116;SDS011;47002;50.856;6.580;2022-08-18T03:01:31;0.00;;;0.00;;
61116;SDS011;47002;50.856;6.580;2022-08-18T03:03:58;0.00;;;0.00;;
61116;SDS011;47002;50.856;6.580;2022-08-18T03:06:26;0.00;;;0.00;;
61116;SDS011;47002;50.856;6.580;2022-08-18T03:08:53;0.00;;;0.00;;
61116;SDS011;47002;50.856;6.580;2022-08-18T03:11:20;0.00;;;0.00;;
61116;SDS011;47002;50.856;6.580;2022-08-18T03:13:48;0.00;;;0.00;;
61116;SDS011;47002;50.856;6.580;2022-08-18T03:16:14;0.00;;;0.00;;
61116;SDS011;47002;50.856;6.580;2022-08-18T03:18:40;0.00;;;0.00;;
61116;SDS011;47002;50.856;6.580;2022-08-18T03:21:07;0.00;;;0.00;;
61116;SDS011;47002;50.856;6.580;2022-08-18T03:23:36;0.00;;;0.00;;
61116;SDS011;47002;50.856;6.580;2022-08-18T03:26:02;0.00;;;0.00;;
61116;SDS011;47002;50.856;6.580;2022-08-18T03:28:28;0.00;;;0.00;;
61116;SDS011;47002;50.856;6.580;2022-08-18T03:30:54;0.00;;;0.00;;
61116;SDS011;47002;50.856;6.580;2022-08-18T03:33:20;0.00;;;0.00;;
61116;SDS011;47002;50.856;6.580;2022-08-18T03:35:46;0.00;;;0.00;;
61116;SDS011;47002;50.856;6.580;2022-08-18T03:38:11;0.00;;;0.00;;
61116;SDS011;47002;50.856;6.580;2022-08-18T03:40:38;0.00;;;0.00;;
61116;SDS011;47002;50.856;6.580;2022-08-18T03:43:04;0.00;;;0.00;;
61116;SDS011;47002;50.856;6.580;2022-08-18T03:45:30;0.00;;;0.00;;
61116;SDS011;47002;50.856;6.580;2022-08-18T03:47:56;0.00;;;0.00;;
61116;SDS011;47002;50.856;6.580;2022-08-18T03:50:22;0.00;;;0.00;;
61116;SDS011;47002;50.856;6.580;2022-08-18T03:52:47;0.00;;;0.00;;
61116;SDS011;47002;50.856;6.580;2022-08-18T03:55:13;0.00;;;0.00;;
61116;SDS011;47002;50.856;6.580;2022-08-18T03:57:40;0.00;;;0.00;;
61116;SDS011;47002;50.856;6.580;2022-08-18T04:00:06;0.00;;;0.00;;
61116;SDS011;47002;50.856;6.580;2022-08-18T04:02:33;0.00;;;0.00;;
61116;SDS011;47002;50.856;6.580;2022-08-18T04:04:59;0.00;;;0.00;;
61116;SDS011;47002;50.856;6.580;2022-08-18T04:07:25;0.00;;;0.00;;
61116;SDS011;47002;50.856;6.580;2022-08-18T04:09:51;0.00;;;0.00;;
61116;SDS011;47002;50.856;6.580;2022-08-18T04:12:17;0.00;;;0.00;;
61116;SDS011;47002;50.856;6.580;2022-08-18T04:14:45;0.00;;;0.00;;
61116;SDS011;47002;50.856;6.580;2022-08-18T04:17:11;0.00;;;0.00;;
61116;SDS011;47002;50.856;6.580;2022-08-18T04:19:37;0.00;;;0.00;;
61116;SDS011;47002;50.856;6.580;2022-08-18T04:22:03;0.00;;;0.00;;
61116;SDS011;47002;50.856;6.580;2022-08-18T04:24:30;0.00;;;0.00;;
61116;SDS011;47002;50.856;6.580;2022-08-18T04:26:57;0.00;;;0.00;;
61116;SDS011;47002;50.856;6.580;2022-08-18T04:29:24;0.00;;;0.00;;
61116;SDS011;47002;50.856;6.580;2022-08-18T04:31:51;0.00;;;0.00;;
61116;SDS011;47002;50.856;6.580;2022-08-18T04:34:17;0.00;;;0.00;;
61116;SDS011;47002;50.856;6.580;2022-08-18T04:36:43;0.00;;;0.00;;
61116;SDS011;47002;50.856;6.580;2022-08-18T04:39:11;0.00;;;0.00;;
61116;SDS011;47002;50.856;6.580;2022-08-18T04:41:37;0.00;;;0.00;;
61116;SDS011;47002;50.856;6.580;2022-08-18T04:44:06;0.00;;;0.00;;
61116;SDS011;47002;50.856;6.580;2022-08-18T04:46:34;0.00;;;0.00;;
61116;SDS011;47002;50.856;6.580;2022-08-18T04:49:01;0.00;;;0.00;;
61116;SDS011;47002;50.856;6.580;2022-08-18T04:51:28;0.00;;;0.00;;
61116;SDS011;47002;50.856;6.580;2022-08-18T04:53:55;0.00;;;0.00;;
61116;SDS011;47002;50.856;6.580;2022-08-18T04:56:22;0.00;;;0.00;;
61116;SDS011;47002;50.856;6.580;2022-08-18T04:58:49;0.00;;;0.00;;
61116;SDS011;47002;50.856;6.580;2022-08-18T05:01:15;0.00;;;0.00;;
61116;SDS011;47002;50.856;6.580;2022-08-18T05:03:41;0.00;;;0.00;;
61116;SDS011;47002;50.856;6.580;2022-08-18T05:06:08;0.00;;;0.00;;
61116;SDS011;47002;50.856;6.580;2022-08-18T05:08:34;0.00;;;0.00;;
61116;SDS011;47002;50.856;6.580;2022-08-18T05:11:00;0.00;;;0.00;;
61116;SDS011;47002;50.856;6.580;2022-08-18T05:13:26;0.00;;;0.00;;
61116;SDS011;47002;50.856;6.580;2022-08-18T05:15:52;0.00;;;0.00;;
61116;SDS011;47002;50.856;6.580;2022-08-18T05:18:18;0.00;;;0.00;;
61116;SDS011;47002;50.856;6.580;2022-08-18T05:20:44;0.00;;;0.00;;
61116;SDS011;47002;50.856;6.580;2022-08-18T05:23:11;0.00;;;0.00;;
61116;SDS011;47002;50.856;6.580;2022-08-18T05:25:36;0.00;;;0.00;;
61116;SDS011;47002;50.856;6.580;2022-08-18T05:28:02;0.00;;;0.00;;
61116;SDS011;47002;50.856;6.580;2022-08-18T05:30:28;0.00;;;0.00;;
61116;SDS011;47002;50.856;6.580;2022-08-18T05:32:54;0.00;;;0.00;;
61116;SDS011;47002;50.856;6.580;2022-08-18T05:35:21;0.00;;;0.00;;
61116;SDS011;47002;50.856;6.580;2022-08-18T05:37:59;0.00;;;0.00;;
61116;SDS011;47002;50.856;6.580;2022-08-18T05:40:33;0.00;;;0.00;;
61116;SDS011;47002;50.856;6.580;2022-08-18T05:43:00;0.00;;;0.00;;
61116;SDS011;47002;50.856;6.580;2022-08-18T05:45:28;0.00;;;0.00;;
61116;SDS011;47002;50.856;6.580;2022-08-18T05:47:56;0.00;;;0.00;;
61116;SDS011;47002;50.856;6.580;2022-08-18T05:50:23;0.00;;;0.00;;
61116;SDS011;47002;50.856;6.580;2022-08-18T05:52:50;0.00;;;0.00;;
61116;SDS011;47002;50.856;6.580;2022-08-18T05:55:20;0.00;;;0.00;;
61116;SDS011;47002;50.856;6.580;2022-08-18T05:57:53;0.00;;;0.00;;
61116;SDS011;47002;50.856;6.580;2022-08-18T06:00:22;0.00;;;0.00;;
61116;SDS011;47002;50.856;6.580;2022-08-18T06:02:51;0.00;;;0.00;;
61116;SDS011;47002;50.856;6.580;2022-08-18T06:05:22;0.00;;;0.00;;
61116;SDS011;47002;50.856;6.580;2022-08-18T06:07:52;0.00;;;0.00;;
61116;SDS011;47002;50.856;6.580;2022-08-18T06:10:21;0.00;;;0.00;;
61116;SDS011;47002;50.856;6.580;2022-08-18T06:12:48;0.00;;;0.00;;
61116;SDS011;47002;50.856;6.580;2022-08-18T06:15:18;0.00;;;0.00;;
61116;SDS011;47002;50.856;6.580;2022-08-18T06:17:56;0.00;;;0.00;;
61116;SDS011;47002;50.856;6.580;2022-08-18T06:20:40;0.00;;;0.00;;
61116;SDS011;47002;50.856;6.580;2022-08-18T06:23:24;0.00;;;0.00;;
61116;SDS011;47002;50.856;6.580;2022-08-18T06:25:57;0.00;;;0.00;;
61116;SDS011;47002;50.856;6.580;2022-08-18T06:28:34;0.00;;;0.00;;
61116;SDS011;47002;50.856;6.580;2022-08-18T06:31:11;0.00;;;0.00;;
61116;SDS011;47002;50.856;6.580;2022-08-18T06:33:43;0.00;;;0.00;;
61116;SDS011;47002;50.856;6.580;2022-08-18T06:36:23;0.00;;;0.00;;
61116;SDS011;47002;50.856;6.580;2022-08-18T06:38:59;0.00;;;0.00;;
61116;SDS011;47002;50.856;6.580;2022-08-18T06:41:33;0.00;;;0.00;;
61116;SDS011;47002;50.856;6.580;2022-08-18T06:44:02;0.00;;;0.00;;
61116;SDS011;47002;50.856;6.580;2022-08-18T06:46:44;0.00;;;0.00;;
61116;SDS011;47002;50.856;6.580;2022-08-18T06:49:26;0.00;;;0.00;;
61116;SDS011;47002;50.856;6.580;2022-08-18T06:54:44;0.00;;;0.00;;
61116;SDS011;47002;50.856;6.580;2022-08-18T06:57:18;0.00;;;0.00;;
61116;SDS011;47002;50.856;6.580;2022-08-18T06:59:53;0.00;;;0.00;;
61116;SDS011;47002;50.856;6.580;2022-08-18T07:02:23;0.00;;;0.00;;
61116;SDS011;47002;50.856;6.580;2022-08-18T07:04:57;0.00;;;0.00;;
61116;SDS011;47002;50.856;6.580;2022-08-18T07:07:29;0.00;;;0.00;;
61116;SDS011;47002;50.856;6.580;2022-08-18T07:09:57;0.00;;;0.00;;
61116;SDS011;47002;50.856;6.580;2022-08-18T07:12:23;0.00;;;0.00;;
61116;SDS011;47002;50.856;6.580;2022-08-18T07:14:54;0.00;;;0.00;;
61116;SDS011;47002;50.856;6.580;2022-08-18T07:17:25;0.00;;;0.00;;
61116;SDS011;47002;50.856;6.580;2022-08-18T07:19:57;0.00;;;0.00;;
61116;SDS011;47002;50.856;6.580;2022-08-18T07:22:29;0.00;;;0.00;;
61116;SDS011;47002;50.856;6.580;2022-08-18T07:24:56;0.00;;;0.00;;
61116;SDS011;47002;50.856;6.580;2022-08-18T07:30:24;0.00;;;0.00;;
61116;SDS011;47002;50.856;6.580;2022-08-18T07:32:59;0.00;;;0.00;;
61116;SDS011;47002;50.856;6.580;2022-08-18T07:35:43;0.00;;;0.00;;
61116;SDS011;47002;50.856;6.580;2022-08-18T07:38:13;0.00;;;0.00;;
61116;SDS011;47002;50.856;6.580;2022-08-18T07:40:44;0.00;;;0.00;;
61116;SDS011;47002;50.856;6.580;2022-08-18T07:43:16;0.00;;;0.00;;
61116;SDS011;47002;50.856;6.580;2022-08-18T07:45:47;0.00;;;0.00;;
61116;SDS011;47002;50.856;6.580;2022-08-18T07:48:15;0.00;;;0.00;;
61116;SDS011;47002;50.856;6.580;2022-08-18T07:50:44;0.00;;;0.00;;
61116;SDS011;47002;50.856;6.580;2022-08-18T07:53:19;0.00;;;0.00;;
61116;SDS011;47002;50.856;6.580;2022-08-18T07:55:57;0.00;;;0.00;;
61116;SDS011;47002;50.856;6.580;2022-08-18T07:58:29;0.00;;;0.00;;
61116;SDS011;47002;50.856;6.580;2022-08-18T08:01:06;0.00;;;0.00;;
61116;SDS011;47002;50.856;6.580;2022-08-18T08:03:42;0.00;;;0.00;;
61116;SDS011;47002;50.856;6.580;2022-08-18T08:06:18;0.00;;;0.00;;
61116;SDS011;47002;50.856;6.580;2022-08-18T08:08:53;0.00;;;0.00;;
61116;SDS011;47002;50.856;6.580;2022-08-18T08:11:29;0.00;;;0.00;;
61116;SDS011;47002;50.856;6.580;2022-08-18T08:14:05;0.00;;;0.00;;
61116;SDS011;47002;50.856;6.580;2022-08-18T08:16:42;0.00;;;0.00;;
61116;SDS011;47002;50.856;6.580;2022-08-18T08:19:18;0.00;;;0.00;;
61116;SDS011;47002;50.856;6.580;2022-08-18T08:22:00;0.00;;;0.00;;
61116;SDS011;47002;50.856;6.580;2022-08-18T08:24:29;0.00;;;0.00;;
61116;SDS011;47002;50.856;6.580;2022-08-18T08:27:07;0.00;;;0.00;;
61116;SDS011;47002;50.856;6.580;2022-08-18T08:29:43;0.00;;;0.00;;
61116;SDS011;47002;50.856;6.580;2022-08-18T08:32:27;0.00;;;0.00;;
61116;SDS011;47002;50.856;6.580;2022-08-18T08:35:01;0.00;;;0.00;;
61116;SDS011;47002;50.856;6.580;2022-08-18T08:37:32;0.00;;;0.00;;
61116;SDS011;47002;50.856;6.580;2022-08-18T08:40:11;0.00;;;0.00;;
61116;SDS011;47002;50.856;6.580;2022-08-18T08:42:40;0.00;;;0.00;;
61116;SDS011;47002;50.856;6.580;2022-08-18T08:45:12;0.00;;;0.00;;
61116;SDS011;47002;50.856;6.580;2022-08-18T08:47:43;0.00;;;0.00;;
61116;SDS011;47002;50.856;6.580;2022-08-18T08:50:23;0.00;;;0.00;;
61116;SDS011;47002;50.856;6.580;2022-08-18T08:52:54;0.00;;;0.00;;
61116;SDS011;47002;50.856;6.580;2022-08-18T08:55:24;0.00;;;0.00;;
61116;SDS011;47002;50.856;6.580;2022-08-18T08:57:53;0.00;;;0.00;;
61116;SDS011;47002;50.856;6.580;2022-08-18T09:00:26;0.00;;;0.00;;
61116;SDS011;47002;50.856;6.580;2022-08-18T09:02:57;0.00;;;0.00;;
61116;SDS011;47002;50.856;6.580;2022-08-18T09:05:35;0.00;;;0.00;;
61116;SDS011;47002;50.856;6.580;2022-08-18T09:08:18;0.00;;;0.00;;
61116;SDS011;47002;50.856;6.580;2022-08-18T09:13:58;0.00;;;0.00;;
61116;SDS011;47002;50.856;6.580;2022-08-18T09:16:45;0.00;;;0.00;;
61116;SDS011;47002;50.856;6.580;2022-08-18T09:19:22;0.00;;;0.00;;
61116;SDS011;47002;50.856;6.580;2022-08-18T09:22:09;0.00;;;0.00;;
61116;SDS011;47002;50.856;6.580;2022-08-18T09:24:45;0.00;;;0.00;;
61116;SDS011;47002;50.856;6.580;2022-08-18T09:27:14;0.00;;;0.00;;
61116;SDS011;47002;50.856;6.580;2022-08-18T09:29:49;0.00;;;0.00;;
61116;SDS011;47002;50.856;6.580;2022-08-18T09:35:34;0.00;;;0.00;;
61116;SDS011;47002;50.856;6.580;2022-08-18T09:38:11;0.00;;;0.00;;
61116;SDS011;47002;50.856;6.580;2022-08-18T09:40:44;0.00;;;0.00;;
61116;SDS011;47002;50.856;6.580;2022-08-18T09:43:13;0.00;;;0.00;;
61116;SDS011;47002;50.856;6.580;2022-08-18T09:45:51;0.00;;;0.00;;
61116;SDS011;47002;50.856;6.580;2022-08-18T09:48:29;0.00;;;0.00;;
61116;SDS011;47002;50.856;6.580;2022-08-18T09:50:59;0.00;;;0.00;;
61116;SDS011;47002;50.856;6.580;2022-08-18T09:59:51;0.00;;;0.00;;
61116;SDS011;47002;50.856;6.580;2022-08-18T10:05:34;0.00;;;0.00;;
61116;SDS011;47002;50.856;6.580;2022-08-18T10:10:55;0.00;;;0.00;;
61116;SDS011;47002;50.856;6.580;2022-08-18T10:13:32;0.00;;;0.00;;
61116;SDS011;47002;50.856;6.580;2022-08-18T10:16:05;0.00;;;0.00;;
61116;SDS011;47002;50.856;6.580;2022-08-18T10:18:48;0.00;;;0.00;;
61116;SDS011;47002;50.856;6.580;2022-08-18T10:21:21;0.00;;;0.00;;
61116;SDS011;47002;50.856;6.580;2022-08-18T10:23:50;0.00;;;0.00;;
61116;SDS011;47002;50.856;6.580;2022-08-18T10:29:47;0.00;;;0.00;;
61116;SDS011;47002;50.856;6.580;2022-08-18T10:32:22;0.00;;;0.00;;
61116;SDS011;47002;50.856;6.580;2022-08-18T10:38:13;0.00;;;0.00;;
61116;SDS011;47002;50.856;6.580;2022-08-18T10:40:42;0.00;;;0.00;;
61116;SDS011;47002;50.856;6.580;2022-08-18T10:43:21;0.00;;;0.00;;
61116;SDS011;47002;50.856;6.580;2022-08-18T10:45:55;0.00;;;0.00;;
61116;SDS011;47002;50.856;6.580;2022-08-18T10:48:22;0.00;;;0.00;;
61116;SDS011;47002;50.856;6.580;2022-08-18T10:50:50;0.00;;;0.00;;
61116;SDS011;47002;50.856;6.580;2022-08-18T10:53:21;0.00;;;0.00;;
61116;SDS011;47002;50.856;6.580;2022-08-18T10:55:55;0.00;;;0.00;;
61116;SDS011;47002;50.856;6.580;2022-08-18T10:58:43;0.00;;;0.00;;
61116;SDS011;47002;50.856;6.580;2022-08-18T11:01:26;0.00;;;0.00;;
61116;SDS011;47002;50.856;6.580;2022-08-18T11:04:04;0.10;;;0.10;;
61116;SDS011;47002;50.856;6.580;2022-08-18T11:06:36;0.00;;;0.00;;
61116;SDS011;47002;50.856;6.580;2022-08-18T11:09:05;0.00;;;0.00;;
61116;SDS011;47002;50.856;6.580;2022-08-18T11:11:32;0.00;;;0.00;;
61116;SDS011;47002;50.856;6.580;2022-08-18T11:14:01;0.00;;;0.00;;
61116;SDS011;47002;50.856;6.580;2022-08-18T11:16:41;0.00;;;0.00;;
61116;SDS011;47002;50.856;6.580;2022-08-18T11:19:15;0.00;;;0.00;;
61116;SDS011;47002;50.856;6.580;2022-08-18T11:21:43;0.00;;;0.00;;
61116;SDS011;47002;50.856;6.580;2022-08-18T11:24:11;0.00;;;0.00;;
61116;SDS011;47002;50.856;6.580;2022-08-18T11:26:41;0.10;;;0.10;;
61116;SDS011;47002;50.856;6.580;2022-08-18T11:29:19;0.10;;;0.10;;
61116;SDS011;47002;50.856;6.580;2022-08-18T11:31:50;0.10;;;0.10;;
61116;SDS011;47002;50.856;6.580;2022-08-18T11:34:20;0.00;;;0.00;;
61116;SDS011;47002;50.856;6.580;2022-08-18T11:36:54;0.10;;;0.10;;
61116;SDS011;47002;50.856;6.580;2022-08-18T11:39:21;0.10;;;0.10;;
61116;SDS011;47002;50.856;6.580;2022-08-18T11:41:47;0.10;;;0.10;;
61116;SDS011;47002;50.856;6.580;2022-08-18T11:44:15;0.10;;;0.10;;
61116;SDS011;47002;50.856;6.580;2022-08-18T11:46:43;0.10;;;0.10;;
61116;SDS011;47002;50.856;6.580;2022-08-18T11:49:14;0.10;;;0.10;;
61116;SDS011;47002;50.856;6.580;2022-08-18T11:51:53;0.10;;;0.10;;
61116;SDS011;47002;50.856;6.580;2022-08-18T11:54:32;0.10;;;0.10;;
61116;SDS011;47002;50.856;6.580;2022-08-18T11:59:53;0.10;;;0.10;;
61116;SDS011;47002;50.856;6.580;2022-08-18T12:02:18;0.10;;;0.10;;
61116;SDS011;47002;50.856;6.580;2022-08-18T12:04:48;0.10;;;0.10;;
61116;SDS011;47002;50.856;6.580;2022-08-18T12:07:16;0.10;;;0.10;;
61116;SDS011;47002;50.856;6.580;2022-08-18T12:10:08;0.10;;;0.10;;
61116;SDS011;47002;50.856;6.580;2022-08-18T12:12:43;0.10;;;0.10;;
61116;SDS011;47002;50.856;6.580;2022-08-18T12:15:22;0.10;;;0.10;;
61116;SDS011;47002;50.856;6.580;2022-08-18T12:17:50;0.10;;;0.10;;
61116;SDS011;47002;50.856;6.580;2022-08-18T12:20:17;0.10;;;0.10;;
61116;SDS011;47002;50.856;6.580;2022-08-18T12:22:43;0.10;;;0.10;;
61116;SDS011;47002;50.856;6.580;2022-08-18T12:25:11;0.10;;;0.10;;
61116;SDS011;47002;50.856;6.580;2022-08-18T12:27:39;0.13;;;0.13;;
61116;SDS011;47002;50.856;6.580;2022-08-18T12:30:05;0.10;;;0.10;;
61116;SDS011;47002;50.856;6.580;2022-08-18T12:32:33;0.10;;;0.10;;
61116;SDS011;47002;50.856;6.580;2022-08-18T12:35:00;0.10;;;0.10;;
61116;SDS011;47002;50.856;6.580;2022-08-18T12:37:29;0.10;;;0.10;;
61116;SDS011;47002;50.856;6.580;2022-08-18T12:39:56;0.10;;;0.10;;
61116;SDS011;47002;50.856;6.580;2022-08-18T12:42:22;0.10;;;0.10;;
61116;SDS011;47002;50.856;6.580;2022-08-18T12:44:48;0.10;;;0.10;;
61116;SDS011;47002;50.856;6.580;2022-08-18T12:47:15;0.10;;;0.10;;
61116;SDS011;47002;50.856;6.580;2022-08-18T12:49:43;0.10;;;0.10;;
61116;SDS011;47002;50.856;6.580;2022-08-18T12:52:09;0.10;;;0.10;;
61116;SDS011;47002;50.856;6.580;2022-08-18T12:54:37;0.10;;;0.10;;
61116;SDS011;47002;50.856;6.580;2022-08-18T12:57:04;0.10;;;0.10;;
61116;SDS011;47002;50.856;6.580;2022-08-18T12:59:32;0.10;;;0.10;;
61116;SDS011;47002;50.856;6.580;2022-08-18T13:01:58;0.10;;;0.10;;
61116;SDS011;47002;50.856;6.580;2022-08-18T13:04:24;0.20;;;0.20;;
61116;SDS011;47002;50.856;6.580;2022-08-18T13:06:50;0.10;;;0.10;;
61116;SDS011;47002;50.856;6.580;2022-08-18T13:09:17;0.20;;;0.20;;
61116;SDS011;47002;50.856;6.580;2022-08-18T13:11:45;0.20;;;0.20;;
61116;SDS011;47002;50.856;6.580;2022-08-18T13:14:11;0.20;;;0.20;;
61116;SDS011;47002;50.856;6.580;2022-08-18T13:16:38;0.20;;;0.20;;
61116;SDS011;47002;50.856;6.580;2022-08-18T13:19:05;0.20;;;0.20;;
61116;SDS011;47002;50.856;6.580;2022-08-18T13:21:31;0.20;;;0.20;;
61116;SDS011;47002;50.856;6.580;2022-08-18T13:23:57;0.20;;;0.20;;
61116;SDS011;47002;50.856;6.580;2022-08-18T13:26:24;0.20;;;0.20;;
61116;SDS011;47002;50.856;6.580;2022-08-18T13:28:53;0.20;;;0.20;;
61116;SDS011;47002;50.856;6.580;2022-08-18T13:31:19;0.20;;;0.20;;
61116;SDS011;47002;50.856;6.580;2022-08-18T13:33:44;0.20;;;0.20;;
61116;SDS011;47002;50.856;6.580;2022-08-18T13:36:10;0.20;;;0.20;;
61116;SDS011;47002;50.856;6.580;2022-08-18T13:38:37;0.20;;;0.20;;
61116;SDS011;47002;50.856;6.580;2022-08-18T13:41:03;0.20;;;0.20;;
61116;SDS011;47002;50.856;6.580;2022-08-18T13:43:29;0.20;;;0.20;;
61116;SDS011;47002;50.856;6.580;2022-08-18T13:45:58;0.25;;;0.25;;
61116;SDS011;47002;50.856;6.580;2022-08-18T13:48:24;0.30;;;0.30;;
61116;SDS011;47002;50.856;6.580;2022-08-18T13:50:51;0.30;;;0.30;;
61116;SDS011;47002;50.856;6.580;2022-08-18T13:53:17;0.30;;;0.30;;
61116;SDS011;47002;50.856;6.580;2022-08-18T13:55:44;0.30;;;0.30;;
61116;SDS011;47002;50.856;6.580;2022-08-18T13:58:10;0.30;;;0.30;;
61116;SDS011;47002;50.856;6.580;2022-08-18T14:00:36;0.32;;;0.32;;
61116;SDS011;47002;50.856;6.580;2022-08-18T14:03:04;0.30;;;0.30;;
61116;SDS011;47002;50.856;6.580;2022-08-18T14:05:30;0.35;;;0.35;;
61116;SDS011;47002;50.856;6.580;2022-08-18T14:07:56;0.35;;;0.35;;
61116;SDS011;47002;50.856;6.580;2022-08-18T14:10:22;0.32;;;0.32;;
61116;SDS011;47002;50.856;6.580;2022-08-18T14:12:48;0.40;;;0.40;;
61116;SDS011;47002;50.856;6.580;2022-08-18T14:15:14;0.30;;;0.30;;
61116;SDS011;47002;50.856;6.580;2022-08-18T14:17:40;0.32;;;0.32;;
61116;SDS011;47002;50.856;6.580;2022-08-18T14:20:09;0.40;;;0.40;;
61116;SDS011;47002;50.856;6.580;2022-08-18T14:22:35;0.40;;;0.40;;
61116;SDS011;47002;50.856;6.580;2022-08-18T14:25:01;0.32;;;0.32;;
61116;SDS011;47002;50.856;6.580;2022-08-18T14:27:28;0.30;;;0.30;;
61116;SDS011;47002;50.856;6.580;2022-08-18T14:29:54;0.40;;;0.40;;
61116;SDS011;47002;50.856;6.580;2022-08-18T14:32:20;0.40;;;0.40;;
61116;SDS011;47002;50.856;6.580;2022-08-18T14:34:47;0.30;;;0.30;;
61116;SDS011;47002;50.856;6.580;2022-08-18T14:37:14;0.30;;;0.30;;
61116;SDS011;47002;50.856;6.580;2022-08-18T14:39:40;0.30;;;0.30;;
61116;SDS011;47002;50.856;6.580;2022-08-18T14:42:06;0.30;;;0.30;;
61116;SDS011;47002;50.856;6.580;2022-08-18T14:44:32;0.30;;;0.30;;
61116;SDS011;47002;50.856;6.580;2022-08-18T14:46:57;0.30;;;0.30;;
61116;SDS011;47002;50.856;6.580;2022-08-18T14:49:23;0.30;;;0.30;;
61116;SDS011;47002;50.856;6.580;2022-08-18T14:51:49;0.30;;;0.30;;
61116;SDS011;47002;50.856;6.580;2022-08-18T14:54:16;0.30;;;0.30;;
61116;SDS011;47002;50.856;6.580;2022-08-18T14:56:42;0.30;;;0.30;;
61116;SDS011;47002;50.856;6.580;2022-08-18T14:59:08;0.30;;;0.30;;
61116;SDS011;47002;50.856;6.580;2022-08-18T15:01:34;0.30;;;0.30;;
61116;SDS011;47002;50.856;6.580;2022-08-18T15:04:00;0.30;;;0.30;;
61116;SDS011;47002;50.856;6.580;2022-08-18T15:06:26;0.30;;;0.30;;
61116;SDS011;47002;50.856;6.580;2022-08-18T15:08:52;0.30;;;0.30;;
61116;SDS011;47002;50.856;6.580;2022-08-18T15:11:19;0.30;;;0.30;;
61116;SDS011;47002;50.856;6.580;2022-08-18T15:13:45;0.30;;;0.30;;
61116;SDS011;47002;50.856;6.580;2022-08-18T15:16:11;0.40;;;0.40;;
61116;SDS011;47002;50.856;6.580;2022-08-18T15:18:37;0.40;;;0.40;;
61116;SDS011;47002;50.856;6.580;2022-08-18T15:21:03;0.40;;;0.40;;
61116;SDS011;47002;50.856;6.580;2022-08-18T15:23:29;0.40;;;0.40;;
61116;SDS011;47002;50.856;6.580;2022-08-18T15:25:54;0.40;;;0.40;;
61116;SDS011;47002;50.856;6.580;2022-08-18T15:28:22;0.40;;;0.40;;
61116;SDS011;47002;50.856;6.580;2022-08-18T15:30:49;0.50;;;0.50;;
61116;SDS011;47002;50.856;6.580;2022-08-18T15:33:16;0.50;;;0.50;;
61116;SDS011;47002;50.856;6.580;2022-08-18T15:35:43;0.50;;;0.50;;